createdAt,value
2023-02-12T00:00:39.528Z,12.47
2023-02-12T00:03:08.608Z,12.40
2023-02-12T00:05:41.799Z,11.63
2023-02-12T00:08:12.694Z,13.20
2023-02-12T00:10:44.889Z,12.70
2023-02-12T00:13:15.286Z,13.43
2023-02-12T00:15:45.838Z,13.60
2023-02-12T00:18:15.120Z,13.90
2023-02-12T00:20:43.570Z,13.73
2023-02-12T00:23:15.871Z,13.37
2023-02-12T00:25:46.906Z,13.87
2023-02-12T00:28:16.230Z,13.60
2023-02-12T00:30:47.969Z,12.93
2023-02-12T00:33:16.457Z,13.37
2023-02-12T00:35:48.333Z,13.23
2023-02-12T00:38:17.624Z,12.87
2023-02-12T00:40:49.135Z,13.00
2023-02-12T00:43:18.908Z,13.63
2023-02-12T00:45:48.242Z,14.10
2023-02-12T00:48:17.442Z,12.70
2023-02-12T00:50:47.388Z,13.53
2023-02-12T00:53:16.320Z,13.77
2023-02-12T00:55:46.969Z,14.00
2023-02-12T00:58:18.987Z,13.87
2023-02-12T01:00:47.872Z,13.13
2023-02-12T01:03:16.703Z,14.10
2023-02-12T01:05:45.516Z,13.57
2023-02-12T01:08:15.290Z,13.93
2023-02-12T01:10:44.445Z,14.10
2023-02-12T01:13:15.656Z,14.10
2023-02-12T01:15:44.259Z,13.87
2023-02-12T01:18:12.625Z,13.60
2023-02-12T01:20:41.640Z,13.83
2023-02-12T01:23:09.865Z,14.23
2023-02-12T01:25:39.660Z,14.40
2023-02-12T01:28:08.118Z,14.00
2023-02-12T01:30:38.750Z,12.90
2023-02-12T01:33:07.607Z,14.63
2023-02-12T01:35:39.161Z,14.80
2023-02-12T01:38:07.690Z,13.83
2023-02-12T01:40:37.522Z,15.00
2023-02-12T01:43:06.205Z,15.37
2023-02-12T01:45:53.650Z,13.10
2023-02-12T01:48:25.532Z,14.53
2023-02-12T01:50:55.682Z,14.43
2023-02-12T01:53:27.373Z,13.77
2023-02-12T01:56:00.800Z,13.83
2023-02-12T01:58:35.298Z,14.57
2023-02-12T02:01:08.620Z,14.47
2023-02-12T02:03:38.566Z,13.37
2023-02-12T02:06:11.856Z,14.63
2023-02-12T02:08:41.049Z,15.27
2023-02-12T02:11:26.463Z,13.80
2023-02-12T02:14:14.848Z,14.77
2023-02-12T02:16:57.362Z,14.37
2023-02-12T02:19:51.124Z,15.63
2023-02-12T02:22:33.180Z,14.23
2023-02-12T02:25:42.600Z,14.20
2023-02-12T02:28:32.632Z,13.43
2023-02-12T02:31:12.687Z,13.53
2023-02-12T02:33:54.829Z,12.97
2023-02-12T02:36:45.352Z,14.27
2023-02-12T02:39:33.160Z,14.20
2023-02-12T02:42:11.931Z,14.70
2023-02-12T02:44:52.067Z,13.83
2023-02-12T02:47:29.009Z,14.20
2023-02-12T02:50:08.321Z,14.57
2023-02-12T02:52:48.926Z,14.00
2023-02-12T02:55:22.761Z,15.10
2023-02-12T02:57:59.893Z,14.73
2023-02-12T03:00:38.027Z,14.47
2023-02-12T03:03:16.470Z,13.57
2023-02-12T03:05:54.131Z,13.63
2023-02-12T03:08:29.475Z,14.80
2023-02-12T03:11:06.494Z,14.10
2023-02-12T03:13:43.843Z,14.27
2023-02-12T03:16:21.958Z,13.73
2023-02-12T03:19:00.392Z,14.67
2023-02-12T03:21:37.602Z,14.67
2023-02-12T03:24:18.295Z,14.37
2023-02-12T03:26:53.178Z,13.97
2023-02-12T03:29:25.102Z,15.20
2023-02-12T03:32:09.884Z,14.10
2023-02-12T03:34:52.031Z,15.07
2023-02-12T03:37:29.815Z,16.20
2023-02-12T03:40:05.344Z,13.77
2023-02-12T03:42:42.370Z,15.07
2023-02-12T03:45:21.579Z,15.93
2023-02-12T03:47:59.135Z,15.07
2023-02-12T03:50:41.484Z,14.00
2023-02-12T03:53:12.660Z,15.23
2023-02-12T03:55:45.886Z,16.57
2023-02-12T03:58:29.509Z,13.57
2023-02-12T04:01:00.785Z,16.07
2023-02-12T04:03:32.927Z,14.93
2023-02-12T04:06:05.534Z,15.13
2023-02-12T04:08:36.718Z,14.93
2023-02-12T04:11:14.805Z,16.23
2023-02-12T04:13:47.510Z,16.10
2023-02-12T04:16:23.589Z,14.83
2023-02-12T04:18:52.704Z,16.00
2023-02-12T04:21:39.316Z,15.67
2023-02-12T04:24:14.889Z,17.10
2023-02-12T04:26:50.945Z,14.67
2023-02-12T04:29:28.224Z,15.63
2023-02-12T04:32:00.307Z,16.57
2023-02-12T04:34:35.788Z,16.77
2023-02-12T04:37:11.930Z,16.27
2023-02-12T04:39:42.753Z,16.17
2023-02-12T04:42:11.287Z,17.10
2023-02-12T04:44:44.632Z,15.33
2023-02-12T04:47:14.260Z,15.23
2023-02-12T04:49:42.965Z,15.43
2023-02-12T04:52:12.934Z,15.73
2023-02-12T04:54:41.231Z,16.03
2023-02-12T04:57:10.675Z,16.00
2023-02-12T04:59:39.155Z,15.87
2023-02-12T05:02:07.571Z,16.47
2023-02-12T05:04:35.838Z,15.47
2023-02-12T05:07:04.386Z,16.63
2023-02-12T05:09:34.683Z,16.20
2023-02-12T05:12:02.866Z,16.30
2023-02-12T05:14:31.126Z,15.27
2023-02-12T05:16:59.410Z,15.83
2023-02-12T05:19:27.725Z,15.63
2023-02-12T05:21:55.888Z,15.03
2023-02-12T05:24:24.189Z,15.00
2023-02-12T05:26:53.948Z,15.77
2023-02-12T05:29:22.453Z,16.57
2023-02-12T05:31:50.735Z,15.90
2023-02-12T05:34:19.227Z,15.90
2023-02-12T05:36:47.575Z,15.73
2023-02-12T05:39:15.839Z,16.73
2023-02-12T05:41:44.211Z,16.77
2023-02-12T05:44:17.668Z,16.53
2023-02-12T05:46:46.299Z,17.40
2023-02-12T05:49:14.630Z,18.17
2023-02-12T05:51:43.529Z,16.03
2023-02-12T05:54:11.782Z,17.53
2023-02-12T05:56:45.669Z,18.60
2023-02-12T05:59:19.194Z,17.10
2023-02-12T06:01:49.288Z,17.30
2023-02-12T06:04:20.219Z,16.73
2023-02-12T06:06:48.439Z,17.20
2023-02-12T06:09:17.105Z,16.93
2023-02-12T06:11:45.781Z,17.73
2023-02-12T06:14:18.006Z,19.23
2023-02-12T06:16:47.839Z,18.43
2023-02-12T06:19:16.944Z,19.83
2023-02-12T06:21:45.328Z,17.53
2023-02-12T06:24:15.185Z,18.57
2023-02-12T06:26:43.582Z,19.03
2023-02-12T06:29:11.873Z,19.13
2023-02-12T06:31:43.152Z,18.27
2023-02-12T06:34:13.869Z,19.20
2023-02-12T06:36:47.931Z,19.23
2023-02-12T06:39:19.554Z,20.33
2023-02-12T06:41:47.818Z,17.93
2023-02-12T06:44:16.152Z,19.37
2023-02-12T06:46:45.984Z,20.37
2023-02-12T06:49:16.377Z,20.10
2023-02-12T06:51:44.990Z,21.53
2023-02-12T06:54:18.047Z,19.57
2023-02-12T06:56:46.522Z,20.73
2023-02-12T06:59:16.489Z,21.37
2023-02-12T07:01:46.309Z,20.10
2023-02-12T07:04:14.653Z,20.70
2023-02-12T07:06:43.123Z,20.20
2023-02-12T07:09:11.924Z,23.13
2023-02-12T07:11:41.208Z,22.90
2023-02-12T07:14:13.292Z,20.47
2023-02-12T07:16:41.562Z,20.43
2023-02-12T07:19:18.350Z,20.00
2023-02-12T07:21:46.840Z,22.27
2023-02-12T07:24:18.176Z,20.37
2023-02-12T07:26:47.156Z,20.20
2023-02-12T07:29:17.462Z,22.97
2023-02-12T07:31:46.540Z,21.13
2023-02-12T07:34:17.515Z,22.90
2023-02-12T07:36:46.955Z,21.77
2023-02-12T07:39:16.053Z,20.20
2023-02-12T07:41:44.377Z,21.50
2023-02-12T07:44:17.018Z,21.47
2023-02-12T07:46:48.622Z,22.53
2023-02-12T07:49:20.552Z,21.53
2023-02-12T07:51:48.945Z,20.37
2023-02-12T07:54:17.843Z,22.30
2023-02-12T07:56:47.634Z,21.37
2023-02-12T07:59:17.905Z,21.67
2023-02-12T08:01:48.465Z,21.53
2023-02-12T08:04:19.582Z,21.73
2023-02-12T08:06:49.286Z,20.30
2023-02-12T08:09:19.755Z,21.07
2023-02-12T08:11:49.020Z,23.70
2023-02-12T08:14:38.057Z,21.60
2023-02-12T08:17:56.115Z,20.60
2023-02-12T08:24:39.855Z,18.83
2023-02-12T08:27:40.447Z,20.03
2023-02-12T08:30:29.745Z,18.90
2023-02-12T08:32:58.322Z,20.10
2023-02-12T08:35:47.676Z,20.63
2023-02-12T08:42:16.659Z,18.27
2023-02-12T08:45:20.806Z,16.87
2023-02-12T08:49:31.112Z,18.37
2023-02-12T08:51:50.091Z,17.73
2023-02-12T08:55:19.370Z,16.93
2023-02-12T08:57:54.254Z,17.13
2023-02-12T09:00:31.262Z,15.57
2023-02-12T09:03:03.472Z,16.03
2023-02-12T09:05:42.241Z,16.17
2023-02-12T09:08:32.891Z,15.30
2023-02-12T09:11:05.514Z,15.83
2023-02-12T09:14:15.522Z,15.03
2023-02-12T09:16:45.728Z,17.30
2023-02-12T09:22:59.781Z,15.10
2023-02-12T10:08:30.816Z,4.70
2023-02-12T10:11:41.767Z,7.43
2023-02-12T10:21:30.500Z,2.73
2023-02-12T10:24:42.622Z,2.27
2023-02-12T10:27:51.154Z,3.33
2023-02-12T10:31:24.336Z,3.93
2023-02-12T10:37:45.686Z,1.97
2023-02-12T10:40:48.974Z,2.37
2023-02-12T10:43:38.914Z,2.40
2023-02-12T10:46:11.817Z,2.23
2023-02-12T10:48:43.333Z,1.83
2023-02-12T10:51:49.642Z,2.63
2023-02-12T10:54:55.379Z,2.40
2023-02-12T10:57:56.818Z,3.10
2023-02-12T11:00:28.337Z,3.10
2023-02-12T11:03:05.919Z,2.13
2023-02-12T11:05:38.014Z,2.97
2023-02-12T11:08:07.316Z,3.73
2023-02-12T11:10:41.270Z,3.30
2023-02-12T11:13:25.905Z,1.67
2023-02-12T11:15:55.008Z,1.50
2023-02-12T11:18:26.631Z,1.40
2023-02-12T11:20:58.715Z,1.57
2023-02-12T11:23:29.449Z,1.40
2023-02-12T11:26:00.797Z,1.40
2023-02-12T11:28:31.614Z,1.57
2023-02-12T11:31:02.178Z,1.43
2023-02-12T11:33:32.935Z,1.37
2023-02-12T11:36:07.029Z,1.23
2023-02-12T11:38:39.199Z,1.33
2023-02-12T11:41:24.635Z,1.40
2023-02-12T11:43:55.373Z,1.90
2023-02-12T11:46:27.855Z,1.60
2023-02-12T11:48:59.512Z,1.80
2023-02-12T11:51:32.689Z,1.73
2023-02-12T11:54:04.361Z,2.37
2023-02-12T11:56:43.813Z,2.30
2023-02-12T11:59:25.904Z,2.20
2023-02-12T12:01:58.373Z,2.60
2023-02-12T12:04:31.781Z,2.10
2023-02-12T12:07:03.200Z,2.30
2023-02-12T12:09:37.179Z,2.07
2023-02-12T12:12:13.913Z,2.17
2023-02-12T12:15:19.736Z,2.10
2023-02-12T12:18:10.481Z,1.90
2023-02-12T12:20:43.649Z,1.90
2023-02-12T12:23:18.773Z,1.70
2023-02-12T12:25:51.290Z,1.87
2023-02-12T12:28:34.512Z,1.63
2023-02-12T12:31:12.115Z,2.17
2023-02-12T12:33:44.540Z,2.47
2023-02-12T12:36:48.099Z,3.30
2023-02-12T12:39:23.298Z,2.97
2023-02-12T12:42:14.003Z,2.83
2023-02-12T12:44:58.352Z,2.93
2023-02-12T12:47:39.018Z,2.50
2023-02-12T12:50:26.842Z,2.87
2023-02-12T12:53:25.862Z,3.00
2023-02-12T12:56:08.408Z,2.93
2023-02-12T12:58:49.641Z,3.20
2023-02-12T13:01:35.648Z,4.00
2023-02-12T13:04:37.651Z,3.60
2023-02-12T13:07:21.923Z,3.17
2023-02-12T13:10:01.944Z,2.90
2023-02-12T13:12:40.536Z,3.20
2023-02-12T13:15:18.860Z,4.17
2023-02-12T13:17:55.175Z,3.40
2023-02-12T13:20:33.799Z,4.50
2023-02-12T13:23:12.051Z,4.10
2023-02-12T13:25:49.801Z,4.20
2023-02-12T13:28:27.880Z,4.67
2023-02-12T13:30:59.948Z,4.97
2023-02-12T13:33:41.022Z,4.63
2023-02-12T13:36:13.477Z,5.50
2023-02-12T13:38:49.253Z,5.50
2023-02-12T13:41:19.808Z,4.87
2023-02-12T13:44:07.461Z,5.57
2023-02-12T13:46:51.712Z,5.77
2023-02-12T13:49:28.989Z,6.37
2023-02-12T13:52:04.639Z,6.30
2023-02-12T13:54:50.891Z,5.67
2023-02-12T13:57:21.166Z,4.40
2023-02-12T13:59:53.876Z,5.17
2023-02-12T14:02:46.464Z,5.03
2023-02-12T14:05:33.162Z,6.17
2023-02-12T14:08:06.028Z,6.00
2023-02-12T14:10:38.695Z,5.70
2023-02-12T14:13:23.005Z,5.43
2023-02-12T14:15:54.515Z,4.57
2023-02-12T14:18:37.979Z,4.60
2023-02-12T14:21:36.742Z,4.57
2023-02-12T14:24:56.586Z,5.47
2023-02-12T14:27:31.996Z,5.83
2023-02-12T14:30:27.273Z,5.33
2023-02-12T14:33:21.764Z,5.93
2023-02-12T14:36:13.365Z,5.77
2023-02-12T14:39:06.748Z,5.37
2023-02-12T14:41:41.934Z,6.90
2023-02-12T14:44:59.757Z,5.13
2023-02-12T14:47:55.816Z,6.00
2023-02-12T14:50:30.566Z,5.90
2023-02-12T14:53:26.089Z,7.30
2023-02-12T14:56:03.432Z,5.87
2023-02-12T14:58:38.296Z,5.23
2023-02-12T15:01:09.459Z,5.03
2023-02-12T15:03:44.612Z,4.47
2023-02-12T15:06:24.912Z,4.70
2023-02-12T15:09:00.867Z,4.67
2023-02-12T15:11:38.755Z,5.23
2023-02-12T15:14:14.471Z,5.47
2023-02-12T15:17:00.260Z,5.97
2023-02-12T15:19:44.244Z,6.23
2023-02-12T15:22:24.892Z,6.23
2023-02-12T15:24:55.292Z,6.47
2023-02-12T15:27:24.145Z,6.03
2023-02-12T15:29:55.376Z,6.30
2023-02-12T15:32:29.751Z,7.20
2023-02-12T15:34:59.399Z,6.63
2023-02-12T15:37:31.427Z,7.13
2023-02-12T15:40:04.256Z,7.40
2023-02-12T15:42:35.901Z,7.10
2023-02-12T15:45:18.453Z,7.10
2023-02-12T15:48:02.450Z,7.27
2023-02-12T15:50:33.164Z,7.23
2023-02-12T15:53:02.970Z,7.37
2023-02-12T15:55:39.204Z,7.13
2023-02-12T15:58:22.297Z,8.00
2023-02-12T16:00:54.054Z,7.73
2023-02-12T16:06:53.789Z,8.17
2023-02-12T16:12:24.789Z,8.07
2023-02-12T16:14:56.085Z,10.00
2023-02-12T16:17:57.578Z,9.20
2023-02-12T16:20:40.008Z,9.53
2023-02-12T16:23:30.135Z,10.50
2023-02-12T16:26:01.999Z,10.57
2023-02-12T16:28:35.438Z,10.30
2023-02-12T16:31:13.910Z,10.60
2023-02-12T16:33:51.064Z,10.60
2023-02-12T16:36:41.768Z,10.60
2023-02-12T16:50:16.220Z,11.17
2023-02-12T16:52:47.383Z,11.03
2023-02-12T17:06:52.485Z,9.83
2023-02-12T17:09:24.760Z,9.77
2023-02-12T17:11:56.245Z,10.00
2023-02-12T17:14:25.473Z,9.67
2023-02-12T17:16:57.227Z,11.03
2023-02-12T17:19:29.603Z,10.53
2023-02-12T17:33:57.844Z,11.07
2023-02-12T17:36:28.801Z,10.60
2023-02-12T17:41:45.394Z,11.10
2023-02-12T17:44:25.228Z,11.67
2023-02-12T17:46:55.793Z,11.07
2023-02-12T18:47:32.182Z,12.70
2023-02-12T19:38:00.545Z,13.07
2023-02-12T19:59:46.530Z,11.30
2023-02-12T20:02:14.875Z,12.17
2023-02-12T20:04:43.361Z,13.17
2023-02-12T20:07:11.754Z,11.93
2023-02-12T20:09:40.299Z,11.83
2023-02-12T20:12:11.312Z,13.83
2023-02-12T20:14:43.981Z,12.77
2023-02-12T20:17:14.217Z,12.53
2023-02-12T20:19:42.540Z,11.57
2023-02-12T20:22:12.076Z,13.33
2023-02-12T20:24:40.404Z,12.57
2023-02-12T20:27:08.545Z,11.47
2023-02-12T20:29:40.084Z,10.93
2023-02-12T20:32:08.317Z,11.90
2023-02-12T20:35:02.888Z,10.97
2023-02-12T20:37:33.304Z,9.77
2023-02-12T20:40:03.421Z,10.23
2023-02-12T20:42:31.789Z,10.37
2023-02-12T20:45:00.150Z,10.53
2023-02-12T20:53:02.489Z,12.60
2023-02-12T20:55:32.577Z,11.90
2023-02-12T20:58:00.847Z,11.07
2023-02-12T21:00:29.593Z,11.30
2023-02-12T21:02:58.226Z,10.93
2023-02-12T21:05:26.662Z,11.53
2023-02-12T21:07:56.163Z,11.17
2023-02-12T21:10:28.082Z,11.87
2023-02-12T21:12:57.158Z,9.80
2023-02-12T21:15:25.332Z,11.33
2023-02-12T21:17:53.747Z,10.43
2023-02-12T21:20:22.445Z,9.83
2023-02-12T21:22:50.791Z,10.70
2023-02-12T21:25:19.315Z,9.93
2023-02-12T21:27:48.841Z,9.97
2023-02-12T21:30:18.388Z,9.90
2023-02-12T21:32:47.261Z,9.90
2023-02-12T21:35:16.916Z,10.23
2023-02-12T21:37:45.579Z,11.07
2023-02-12T21:40:14.956Z,11.90
2023-02-12T21:42:43.130Z,11.53
2023-02-12T21:45:16.669Z,11.97
2023-02-12T21:47:45.775Z,11.60
2023-02-12T21:50:14.322Z,11.40
2023-02-12T21:52:44.016Z,12.00
2023-02-12T21:55:12.066Z,10.13
2023-02-12T21:57:43.442Z,10.60
2023-02-12T22:00:16.867Z,11.50
2023-02-12T22:02:45.552Z,10.73
2023-02-12T22:05:13.749Z,8.73
2023-02-12T22:07:41.934Z,10.50
2023-02-12T22:10:10.709Z,9.70
2023-02-12T22:12:39.014Z,10.70
2023-02-12T22:15:07.670Z,10.27
2023-02-12T22:17:37.116Z,10.00
2023-02-12T22:20:05.688Z,10.40
2023-02-12T22:22:33.912Z,10.73
2023-02-12T22:25:02.088Z,10.03
2023-02-12T22:27:32.136Z,10.30
2023-02-12T22:30:00.922Z,10.27
2023-02-12T22:32:29.928Z,11.40
2023-02-12T22:34:59.661Z,10.00
2023-02-12T22:37:28.127Z,10.77
2023-02-12T22:39:56.398Z,10.23
2023-02-12T22:42:24.705Z,9.47
2023-02-12T22:44:52.917Z,9.77
2023-02-12T22:47:23.974Z,10.87
2023-02-12T22:49:52.286Z,9.57
2023-02-12T22:52:21.885Z,9.67
2023-02-12T22:54:49.990Z,9.33
2023-02-12T22:57:18.151Z,9.60
2023-02-12T22:59:46.301Z,9.70
2023-02-12T23:02:14.335Z,9.93
2023-02-12T23:04:42.414Z,9.53
2023-02-12T23:07:10.480Z,9.20
2023-02-12T23:09:40.008Z,9.07
2023-02-12T23:12:09.601Z,9.53
2023-02-12T23:14:37.696Z,8.47
2023-02-12T23:17:05.985Z,9.83
2023-02-12T23:19:33.998Z,9.47
2023-02-12T23:22:02.211Z,9.80
2023-02-12T23:24:30.209Z,10.53
2023-02-12T23:26:59.744Z,9.67
2023-02-12T23:29:27.946Z,9.70
2023-02-12T23:31:56.188Z,8.90
2023-02-12T23:34:24.253Z,9.53
2023-02-12T23:36:52.506Z,9.17
2023-02-12T23:39:20.666Z,9.00
2023-02-12T23:41:48.735Z,8.80
2023-02-12T23:44:18.286Z,9.07
2023-02-12T23:46:47.549Z,9.17
2023-02-12T23:49:15.570Z,9.63
2023-02-12T23:51:43.707Z,9.53
2023-02-12T23:54:11.798Z,10.07
2023-02-12T23:56:39.905Z,10.13
2023-02-12T23:59:08.139Z,8.67
